アラート の空港の天気 - METARとTAF

Alert Airport ( CYLT / YLT ) - カナダ ヌナブト準州アラート
飛行場実況気象(Metar)
観測時間04/20 15:00 EDT (04/20 19:00 UTC)
風向・風速西北西 3m/s
視程10km以上
天気現象
少しの雲 雲底高度 910m
気温-25℃
湿度76%
気圧1013.6hPa
METARCYLT 201900Z 30006KT 15SM FEW030 M25/M28 A2992 RMK SC1 LAST OBS/NEXT 230500 UTC SLP136
過去の天気等 Google飛行場航空写真 Wunderground天気予報

過去48時間のMETAR

飛行場予報(TAF)
発表時間: 4/20 13:38 EDT (4/20 17:38 UTC)
予報対象時間: 20日14時 EDT ~ 21日2時 EDT
風向・風速西北西 4m/s
視程10km以上
少しの雲 雲底高度 910m
20日14時 EDT ~ 20日16時 EDT に徐々に
風向・風速不定 2m/s
20日20時 EDT から
風向・風速西北西 3m/s
視程10km以上
全天の4割程度の雲 雲底高度 910m
全天の4割程度の雲 雲底高度 6100m
20日20時 EDT ~ 21日2時 EDT に一時的に
全天の8割程度の雲 雲底高度 910m
TAF CYLT 201738Z 2018/2106 29008KT P6SM FEW030
BECMG 2018/2020 VRB03KT
FM210000 30005KT P6SM SCT030 SCT200
TEMPO 2100/2106 BKN030 RMK NXT FCST BY 210000Z